Terminal Aerodrome Forecast
Issued by NWS

Home | Current Version | Previous Version | Text Only | Print | Product List | Glossary On
Versions: 1 2 3 4 5 6 7 8 9 10 11 12 13 14 15
000
FTUS46 KPDT 042320
TAFRDM
TAF
KRDM 042320Z 0500/0524 34010KT P6SM VCTS SCT045CB OVC060
     FM050300 31010KT P6SM -SHRA SCT035 OVC050
     FM050900 VRB05KT 6SM -SHRA BKN035 OVC050
     FM051500 VRB04KT P6SM BKN070
     FM051900 33010G20KT P6SM SCT080=

USA.gov is the U.S. government's official web portal to all federal, state and local government web resources and services.